sensor_id;sensor_type;location;lat;lon;timestamp;pressure;altitude;pressure_sealevel;temperature;humidity
60725;BME280;59881;36.722;-4.462;2024-01-27T00:00:24;102206.81;;;13.08;55.62
60725;BME280;59881;36.722;-4.462;2024-01-27T00:02:51;102212.53;;;13.00;55.59
60725;BME280;59881;36.722;-4.462;2024-01-27T00:05:17;101962.38;;;11.27;56.29
60725;BME280;59881;36.722;-4.462;2024-01-27T00:07:43;101275.25;;;7.45;56.45
60725;BME280;59881;36.722;-4.462;2024-01-27T00:10:08;101945.72;;;11.26;56.57
60725;BME280;59881;36.722;-4.462;2024-01-27T00:12:34;102205.59;;;12.98;56.94
60725;BME280;59881;36.722;-4.462;2024-01-27T00:14:59;102272.75;;;12.95;56.68
60725;BME280;59881;36.722;-4.462;2024-01-27T00:17:25;101924.16;;;11.18;57.65
60725;BME280;59881;36.722;-4.462;2024-01-27T00:19:53;102211.03;;;12.95;57.94
60725;BME280;59881;36.722;-4.462;2024-01-27T00:22:19;102196.03;;;12.95;58.77
60725;BME280;59881;36.722;-4.462;2024-01-27T00:24:46;101732.41;;;10.14;58.26
60725;BME280;59881;36.722;-4.462;2024-01-27T00:27:11;102214.09;;;12.87;58.27
60725;BME280;59881;36.722;-4.462;2024-01-27T00:29:37;101977.31;;;11.09;58.61
60725;BME280;59881;36.722;-4.462;2024-01-27T00:32:03;102195.28;;;12.76;58.68
60725;BME280;59881;36.722;-4.462;2024-01-27T00:34:28;102191.09;;;12.72;58.88
60725;BME280;59881;36.722;-4.462;2024-01-27T00:36:54;101852.03;;;10.65;58.99
60725;BME280;59881;36.722;-4.462;2024-01-27T00:39:19;102248.16;;;12.58;59.09
60725;BME280;59881;36.722;-4.462;2024-01-27T00:41:45;102050.94;;;11.13;58.90
60725;BME280;59881;36.722;-4.462;2024-01-27T00:44:11;102182.44;;;12.51;59.22
60725;BME280;59881;36.722;-4.462;2024-01-27T00:46:37;102185.44;;;12.45;59.28
60725;BME280;59881;36.722;-4.462;2024-01-27T00:49:03;102034.16;;;11.52;59.95
60725;BME280;59881;36.722;-4.462;2024-01-27T00:51:28;101543.50;;;8.31;60.59
60725;BME280;59881;36.722;-4.462;2024-01-27T00:53:54;101880.78;;;10.70;61.43
60725;BME280;59881;36.722;-4.462;2024-01-27T00:56:20;102174.63;;;12.49;61.79
60725;BME280;59881;36.722;-4.462;2024-01-27T00:58:45;102055.81;;;11.23;61.88
60725;BME280;59881;36.722;-4.462;2024-01-27T01:01:11;101983.38;;;11.30;62.20
60725;BME280;59881;36.722;-4.462;2024-01-27T01:03:37;102171.34;;;12.44;62.73
60725;BME280;59881;36.722;-4.462;2024-01-27T01:06:03;102046.88;;;11.62;62.41
60725;BME280;59881;36.722;-4.462;2024-01-27T01:08:29;102169.41;;;12.30;62.33
60725;BME280;59881;36.722;-4.462;2024-01-27T01:10:54;101463.13;;;8.08;62.13
60725;BME280;59881;36.722;-4.462;2024-01-27T01:13:20;101988.25;;;10.82;62.30
60725;BME280;59881;36.722;-4.462;2024-01-27T01:15:46;101848.84;;;10.21;62.27
60725;BME280;59881;36.722;-4.462;2024-01-27T01:18:12;102167.06;;;12.07;62.50
60725;BME280;59881;36.722;-4.462;2024-01-27T01:20:37;102040.38;;;10.96;62.41
60725;BME280;59881;36.722;-4.462;2024-01-27T01:23:03;101626.06;;;8.85;62.53
60725;BME280;59881;36.722;-4.462;2024-01-27T01:25:29;102056.94;;;11.17;62.96
60725;BME280;59881;36.722;-4.462;2024-01-27T01:27:54;102157.66;;;12.01;63.18
60725;BME280;59881;36.722;-4.462;2024-01-27T01:30:20;101932.00;;;10.64;63.12
60725;BME280;59881;36.722;-4.462;2024-01-27T01:32:46;101620.66;;;8.69;63.16
60725;BME280;59881;36.722;-4.462;2024-01-27T01:35:11;101834.47;;;9.69;63.55
60725;BME280;59881;36.722;-4.462;2024-01-27T01:37:37;102082.72;;;11.48;63.89
60725;BME280;59881;36.722;-4.462;2024-01-27T01:40:03;102225.97;;;11.90;63.83
60725;BME280;59881;36.722;-4.462;2024-01-27T01:42:29;102210.13;;;11.90;64.56
60725;BME280;59881;36.722;-4.462;2024-01-27T01:44:55;101978.50;;;10.84;64.96
60725;BME280;59881;36.722;-4.462;2024-01-27T01:47:21;102183.78;;;11.88;64.71
60725;BME280;59881;36.722;-4.462;2024-01-27T01:49:48;102215.66;;;11.84;64.73
60725;BME280;59881;36.722;-4.462;2024-01-27T01:52:14;101821.75;;;9.79;64.84
60725;BME280;59881;36.722;-4.462;2024-01-27T01:54:49;102205.31;;;11.79;65.15
60725;BME280;59881;36.722;-4.462;2024-01-27T01:57:14;101751.00;;;9.33;65.13
60725;BME280;59881;36.722;-4.462;2024-01-27T01:59:40;102039.56;;;10.75;65.86
60725;BME280;59881;36.722;-4.462;2024-01-27T02:02:11;102157.38;;;11.88;66.62
60725;BME280;59881;36.722;-4.462;2024-01-27T02:07:06;102175.63;;;11.93;68.36
60725;BME280;59881;36.722;-4.462;2024-01-27T02:09:32;101337.41;;;6.36;67.59
60725;BME280;59881;36.722;-4.462;2024-01-27T02:11:57;102215.47;;;11.88;67.95
60725;BME280;59881;36.722;-4.462;2024-01-27T02:14:23;102150.50;;;11.84;68.01
60725;BME280;59881;36.722;-4.462;2024-01-27T02:16:50;101774.72;;;9.32;68.30
60725;BME280;59881;36.722;-4.462;2024-01-27T02:19:16;102152.59;;;11.77;68.44
60725;BME280;59881;36.722;-4.462;2024-01-27T02:21:41;101576.38;;;7.99;68.89
60725;BME280;59881;36.722;-4.462;2024-01-27T02:24:07;101616.19;;;8.51;69.82
60725;BME280;59881;36.722;-4.462;2024-01-27T02:26:33;101927.75;;;10.03;70.17
60725;BME280;59881;36.722;-4.462;2024-01-27T02:28:58;101686.78;;;9.00;70.65
60725;BME280;59881;36.722;-4.462;2024-01-27T02:31:24;101989.03;;;10.84;71.52
60725;BME280;59881;36.722;-4.462;2024-01-27T02:33:49;101785.81;;;9.59;71.91
60725;BME280;59881;36.722;-4.462;2024-01-27T02:36:15;102252.13;;;11.75;72.21
60725;BME280;59881;36.722;-4.462;2024-01-27T02:38:41;101690.41;;;8.97;71.64
60725;BME280;59881;36.722;-4.462;2024-01-27T02:41:06;101681.09;;;8.90;71.56
60725;BME280;59881;36.722;-4.462;2024-01-27T02:43:32;101774.59;;;8.74;72.11
60725;BME280;59881;36.722;-4.462;2024-01-27T02:45:57;101631.81;;;8.54;71.74
60725;BME280;59881;36.722;-4.462;2024-01-27T02:48:23;102226.59;;;11.57;72.31
60725;BME280;59881;36.722;-4.462;2024-01-27T02:50:49;101432.41;;;7.06;72.14
60725;BME280;59881;36.722;-4.462;2024-01-27T02:53:14;101468.84;;;7.56;72.36
60725;BME280;59881;36.722;-4.462;2024-01-27T02:55:40;102128.44;;;11.49;72.68
60725;BME280;59881;36.722;-4.462;2024-01-27T02:58:05;101534.09;;;7.42;72.45
60725;BME280;59881;36.722;-4.462;2024-01-27T03:00:31;101851.63;;;9.78;72.99
60725;BME280;59881;36.722;-4.462;2024-01-27T03:02:57;101646.94;;;8.49;73.16
60725;BME280;59881;36.722;-4.462;2024-01-27T03:05:23;101682.72;;;8.72;73.36
60725;BME280;59881;36.722;-4.462;2024-01-27T03:07:49;101994.81;;;10.54;74.06
60725;BME280;59881;36.722;-4.462;2024-01-27T03:10:15;101858.81;;;9.33;74.27
60725;BME280;59881;36.722;-4.462;2024-01-27T03:12:40;101627.50;;;8.11;74.09
60725;BME280;59881;36.722;-4.462;2024-01-27T03:15:07;102027.53;;;10.30;74.89
60725;BME280;59881;36.722;-4.462;2024-01-27T03:17:33;102092.41;;;11.11;75.16
60725;BME280;59881;36.722;-4.462;2024-01-27T03:19:58;102138.22;;;11.28;75.75
60725;BME280;59881;36.722;-4.462;2024-01-27T03:22:24;101808.00;;;9.33;75.77
60725;BME280;59881;36.722;-4.462;2024-01-27T03:24:50;102107.41;;;11.28;76.45
60725;BME280;59881;36.722;-4.462;2024-01-27T03:27:17;102102.94;;;11.30;76.76
60725;BME280;59881;36.722;-4.462;2024-01-27T03:29:42;102217.44;;;11.26;76.68
60725;BME280;59881;36.722;-4.462;2024-01-27T03:32:08;101780.66;;;9.37;76.90
60725;BME280;59881;36.722;-4.462;2024-01-27T03:34:34;102099.50;;;11.28;77.78
60725;BME280;59881;36.722;-4.462;2024-01-27T03:37:00;101823.31;;;9.64;77.44
60725;BME280;59881;36.722;-4.462;2024-01-27T03:39:25;101672.09;;;8.75;77.51
60725;BME280;59881;36.722;-4.462;2024-01-27T03:41:51;102090.47;;;11.34;78.41
60725;BME280;59881;36.722;-4.462;2024-01-27T03:44:17;102125.97;;;11.08;78.14
60725;BME280;59881;36.722;-4.462;2024-01-27T03:46:42;102050.75;;;10.61;78.07
60725;BME280;59881;36.722;-4.462;2024-01-27T03:49:08;102120.31;;;10.96;78.86
60725;BME280;59881;36.722;-4.462;2024-01-27T03:51:34;101868.34;;;10.17;78.76
60725;BME280;59881;36.722;-4.462;2024-01-27T03:54:00;102054.78;;;11.44;78.80
60725;BME280;59881;36.722;-4.462;2024-01-27T03:56:26;102110.09;;;11.65;79.22
60725;BME280;59881;36.722;-4.462;2024-01-27T03:58:52;102124.22;;;11.64;78.88
60725;BME280;59881;36.722;-4.462;2024-01-27T04:01:18;101511.38;;;8.26;78.57
60725;BME280;59881;36.722;-4.462;2024-01-27T04:03:43;101992.88;;;11.15;78.89
60725;BME280;59881;36.722;-4.462;2024-01-27T04:06:09;102077.47;;;11.66;78.96
60725;BME280;59881;36.722;-4.462;2024-01-27T04:08:34;101966.63;;;10.56;78.97
60725;BME280;59881;36.722;-4.462;2024-01-27T04:11:00;101871.72;;;10.00;79.09
60725;BME280;59881;36.722;-4.462;2024-01-27T04:13:25;102082.84;;;11.64;79.22
60725;BME280;59881;36.722;-4.462;2024-01-27T04:15:51;102074.84;;;11.66;79.17
60725;BME280;59881;36.722;-4.462;2024-01-27T04:18:19;101909.38;;;10.02;79.17
60725;BME280;59881;36.722;-4.462;2024-01-27T04:20:44;102204.41;;;11.61;79.25
60725;BME280;59881;36.722;-4.462;2024-01-27T04:23:11;101750.03;;;9.74;78.96
60725;BME280;59881;36.722;-4.462;2024-01-27T04:25:36;101542.72;;;8.49;78.64
60725;BME280;59881;36.722;-4.462;2024-01-27T04:28:02;101910.56;;;10.72;78.94
60725;BME280;59881;36.722;-4.462;2024-01-27T04:30:28;101604.19;;;8.85;79.09
60725;BME280;59881;36.722;-4.462;2024-01-27T04:32:54;101686.84;;;9.38;79.29
60725;BME280;59881;36.722;-4.462;2024-01-27T04:35:20;101533.00;;;8.52;80.10
60725;BME280;59881;36.722;-4.462;2024-01-27T04:37:45;101620.72;;;9.07;80.11
60725;BME280;59881;36.722;-4.462;2024-01-27T04:40:11;102094.94;;;11.68;80.50
60725;BME280;59881;36.722;-4.462;2024-01-27T04:42:38;102107.47;;;11.65;80.51
60725;BME280;59881;36.722;-4.462;2024-01-27T04:45:07;101409.47;;;6.69;79.49
60725;BME280;59881;36.722;-4.462;2024-01-27T04:47:33;102091.81;;;11.60;80.34
60725;BME280;59881;36.722;-4.462;2024-01-27T04:49:58;101369.41;;;7.31;80.02
60725;BME280;59881;36.722;-4.462;2024-01-27T04:52:24;101282.81;;;6.92;80.52
60725;BME280;59881;36.722;-4.462;2024-01-27T04:54:49;101789.19;;;9.82;80.73
60725;BME280;59881;36.722;-4.462;2024-01-27T04:57:15;102060.31;;;11.57;80.69
60725;BME280;59881;36.722;-4.462;2024-01-27T04:59:41;101729.53;;;9.43;80.59
60725;BME280;59881;36.722;-4.462;2024-01-27T05:02:07;101771.19;;;9.33;80.77
60725;BME280;59881;36.722;-4.462;2024-01-27T05:04:32;102136.22;;;11.52;81.08
60725;BME280;59881;36.722;-4.462;2024-01-27T05:06:59;102146.78;;;11.52;81.24
60725;BME280;59881;36.722;-4.462;2024-01-27T05:09:24;101479.34;;;7.97;82.12
60725;BME280;59881;36.722;-4.462;2024-01-27T05:11:50;101965.75;;;10.75;82.76
60725;BME280;59881;36.722;-4.462;2024-01-27T05:14:19;102150.09;;;11.74;82.98
60725;BME280;59881;36.722;-4.462;2024-01-27T05:16:45;101904.97;;;10.78;82.71
60725;BME280;59881;36.722;-4.462;2024-01-27T05:19:11;102070.97;;;11.73;82.33
60725;BME280;59881;36.722;-4.462;2024-01-27T05:21:37;102028.31;;;10.90;82.44
60725;BME280;59881;36.722;-4.462;2024-01-27T05:24:04;102033.78;;;11.05;82.73
60725;BME280;59881;36.722;-4.462;2024-01-27T05:26:29;101796.31;;;9.99;83.07
60725;BME280;59881;36.722;-4.462;2024-01-27T05:28:55;101918.66;;;10.86;82.44
60725;BME280;59881;36.722;-4.462;2024-01-27T05:31:20;101757.94;;;9.93;81.74
60725;BME280;59881;36.722;-4.462;2024-01-27T05:33:46;101636.75;;;8.41;81.59
60725;BME280;59881;36.722;-4.462;2024-01-27T05:36:11;101176.31;;;6.29;81.08
60725;BME280;59881;36.722;-4.462;2024-01-27T05:38:37;102085.66;;;11.78;81.73
60725;BME280;59881;36.722;-4.462;2024-01-27T05:41:03;101823.91;;;9.90;81.29
60725;BME280;59881;36.722;-4.462;2024-01-27T05:43:28;101849.97;;;9.76;81.10
60725;BME280;59881;36.722;-4.462;2024-01-27T05:45:54;101894.66;;;10.73;80.94
60725;BME280;59881;36.722;-4.462;2024-01-27T05:48:20;101736.63;;;8.81;80.47
60725;BME280;59881;36.722;-4.462;2024-01-27T05:50:55;101765.63;;;9.20;80.22
60725;BME280;59881;36.722;-4.462;2024-01-27T05:53:24;101179.78;;;6.08;79.68
60725;BME280;59881;36.722;-4.462;2024-01-27T05:55:50;101907.09;;;10.13;79.67
60725;BME280;59881;36.722;-4.462;2024-01-27T05:58:15;102171.06;;;11.77;79.23
60725;BME280;59881;36.722;-4.462;2024-01-27T06:00:44;101868.34;;;10.54;79.11
60725;BME280;59881;36.722;-4.462;2024-01-27T06:03:10;101746.28;;;9.80;78.80
60725;BME280;59881;36.722;-4.462;2024-01-27T06:05:36;102066.88;;;11.67;78.60
60725;BME280;59881;36.722;-4.462;2024-01-27T06:08:01;101579.19;;;7.94;78.22
60725;BME280;59881;36.722;-4.462;2024-01-27T06:10:27;102024.47;;;10.97;78.39
60725;BME280;59881;36.722;-4.462;2024-01-27T06:12:52;101360.75;;;7.50;78.04
60725;BME280;59881;36.722;-4.462;2024-01-27T06:15:18;101840.38;;;10.33;77.82
60725;BME280;59881;36.722;-4.462;2024-01-27T06:17:43;101513.69;;;8.32;77.73
60725;BME280;59881;36.722;-4.462;2024-01-27T06:20:09;101911.34;;;10.74;77.55
60725;BME280;59881;36.722;-4.462;2024-01-27T06:22:35;101864.88;;;9.95;77.12
60725;BME280;59881;36.722;-4.462;2024-01-27T06:25:00;101293.59;;;6.84;76.66
60725;BME280;59881;36.722;-4.462;2024-01-27T06:27:26;101517.13;;;8.14;76.51
60725;BME280;59881;36.722;-4.462;2024-01-27T06:29:52;101615.28;;;8.09;76.09
60725;BME280;59881;36.722;-4.462;2024-01-27T06:32:17;101987.97;;;10.50;76.34
60725;BME280;59881;36.722;-4.462;2024-01-27T06:34:43;102075.75;;;11.28;76.62
60725;BME280;59881;36.722;-4.462;2024-01-27T06:37:08;102091.25;;;11.17;76.17
60725;BME280;59881;36.722;-4.462;2024-01-27T06:39:34;101632.44;;;8.39;76.33
60725;BME280;59881;36.722;-4.462;2024-01-27T06:41:59;101993.09;;;10.14;76.12
60725;BME280;59881;36.722;-4.462;2024-01-27T06:44:25;101665.25;;;8.28;76.90
60725;BME280;59881;36.722;-4.462;2024-01-27T06:46:50;101270.38;;;6.10;76.64
60725;BME280;59881;36.722;-4.462;2024-01-27T06:49:16;101615.66;;;8.43;77.34
60725;BME280;59881;36.722;-4.462;2024-01-27T06:51:43;101465.66;;;7.48;76.82
60725;BME280;59881;36.722;-4.462;2024-01-27T06:54:08;101305.78;;;6.42;76.19
60725;BME280;59881;36.722;-4.462;2024-01-27T06:56:34;100902.50;;;3.64;75.87
60725;BME280;59881;36.722;-4.462;2024-01-27T06:58:59;101289.38;;;5.43;75.95
60725;BME280;59881;36.722;-4.462;2024-01-27T07:01:25;101901.78;;;9.55;76.55
60725;BME280;59881;36.722;-4.462;2024-01-27T07:03:50;101874.63;;;8.91;76.71
60725;BME280;59881;36.722;-4.462;2024-01-27T07:06:16;102243.56;;;10.91;77.03
60725;BME280;59881;36.722;-4.462;2024-01-27T07:08:41;101245.25;;;5.83;76.53
60725;BME280;59881;36.722;-4.462;2024-01-27T07:11:07;101785.91;;;8.96;76.66
60725;BME280;59881;36.722;-4.462;2024-01-27T07:13:33;102094.06;;;10.93;76.90
60725;BME280;59881;36.722;-4.462;2024-01-27T07:15:58;102191.56;;;10.95;76.95
60725;BME280;59881;36.722;-4.462;2024-01-27T07:18:24;102099.28;;;10.95;76.64
60725;BME280;59881;36.722;-4.462;2024-01-27T07:20:50;101980.50;;;10.21;76.64
60725;BME280;59881;36.722;-4.462;2024-01-27T07:23:16;101995.41;;;10.01;76.65
60725;BME280;59881;36.722;-4.462;2024-01-27T07:25:43;102107.06;;;10.38;76.53
60725;BME280;59881;36.722;-4.462;2024-01-27T07:28:08;102139.41;;;11.02;76.86
60725;BME280;59881;36.722;-4.462;2024-01-27T07:30:34;102197.16;;;11.08;76.55
60725;BME280;59881;36.722;-4.462;2024-01-27T07:33:00;101976.06;;;9.82;76.61
60725;BME280;59881;36.722;-4.462;2024-01-27T07:35:25;101972.69;;;9.99;76.64
60725;BME280;59881;36.722;-4.462;2024-01-27T07:37:51;102145.22;;;11.67;76.57
60725;BME280;59881;36.722;-4.462;2024-01-27T07:40:16;101851.03;;;9.92;77.50
60725;BME280;59881;36.722;-4.462;2024-01-27T07:42:42;102142.13;;;14.39;77.09
60725;BME280;59881;36.722;-4.462;2024-01-27T07:45:08;101389.19;;;11.41;74.44
60725;BME280;59881;36.722;-4.462;2024-01-27T07:47:34;101834.25;;;14.98;71.03
60725;BME280;59881;36.722;-4.462;2024-01-27T07:50:00;102114.91;;;18.05;65.47
60725;BME280;59881;36.722;-4.462;2024-01-27T07:52:25;102004.31;;;17.87;59.44
60725;BME280;59881;36.722;-4.462;2024-01-27T07:54:51;102102.09;;;20.10;54.48
60725;BME280;59881;36.722;-4.462;2024-01-27T07:57:16;102104.31;;;21.08;50.35
60725;BME280;59881;36.722;-4.462;2024-01-27T07:59:42;101969.50;;;21.08;46.81
60725;BME280;59881;36.722;-4.462;2024-01-27T08:02:07;101867.38;;;21.31;43.66
60725;BME280;59881;36.722;-4.462;2024-01-27T08:04:34;102114.81;;;23.23;40.54
60725;BME280;59881;36.722;-4.462;2024-01-27T08:07:00;101851.56;;;22.22;39.94
60725;BME280;59881;36.722;-4.462;2024-01-27T08:09:31;101466.13;;;20.50;37.68
60725;BME280;59881;36.722;-4.462;2024-01-27T08:11:56;102301.66;;;23.84;36.86
60725;BME280;59881;36.722;-4.462;2024-01-27T08:14:22;102134.78;;;22.45;37.93
60725;BME280;59881;36.722;-4.462;2024-01-27T08:16:48;101671.00;;;17.66;39.83
60725;BME280;59881;36.722;-4.462;2024-01-27T08:19:14;102164.19;;;20.46;41.85
60725;BME280;59881;36.722;-4.462;2024-01-27T08:21:45;102183.88;;;21.58;41.46
60725;BME280;59881;36.722;-4.462;2024-01-27T08:24:12;101556.94;;;19.65;38.92
60725;BME280;59881;36.722;-4.462;2024-01-27T08:26:38;101659.44;;;21.00;36.49
60725;BME280;59881;36.722;-4.462;2024-01-27T08:29:03;102208.16;;;25.18;35.03
60725;BME280;59881;36.722;-4.462;2024-01-27T08:31:29;102164.00;;;26.52;32.31
60725;BME280;59881;36.722;-4.462;2024-01-27T08:33:54;102183.31;;;27.75;30.75
60725;BME280;59881;36.722;-4.462;2024-01-27T08:36:20;101710.84;;;26.14;28.99
60725;BME280;59881;36.722;-4.462;2024-01-27T08:38:46;102011.28;;;28.47;28.04
60725;BME280;59881;36.722;-4.462;2024-01-27T08:41:12;102154.44;;;29.11;27.94
60725;BME280;59881;36.722;-4.462;2024-01-27T08:43:37;102027.22;;;28.05;27.96
60725;BME280;59881;36.722;-4.462;2024-01-27T08:46:03;101937.41;;;27.79;27.84
60725;BME280;59881;36.722;-4.462;2024-01-27T08:48:28;101784.59;;;27.22;27.43
60725;BME280;59881;36.722;-4.462;2024-01-27T08:50:54;102125.88;;;29.30;27.60
60725;BME280;59881;36.722;-4.462;2024-01-27T08:53:19;102180.44;;;29.72;27.77
60725;BME280;59881;36.722;-4.462;2024-01-27T08:55:45;102172.66;;;30.11;26.79
60725;BME280;59881;36.722;-4.462;2024-01-27T08:58:11;102082.63;;;29.93;26.58
60725;BME280;59881;36.722;-4.462;2024-01-27T09:00:36;102178.75;;;30.98;25.57
60725;BME280;59881;36.722;-4.462;2024-01-27T09:03:02;102023.88;;;30.62;24.83
60725;BME280;59881;36.722;-4.462;2024-01-27T09:05:28;101657.00;;;29.32;24.29
60725;BME280;59881;36.722;-4.462;2024-01-27T09:07:55;102056.50;;;32.56;23.50
60725;BME280;59881;36.722;-4.462;2024-01-27T09:10:20;101834.47;;;31.81;22.77
60725;BME280;59881;36.722;-4.462;2024-01-27T09:12:46;102184.69;;;34.30;22.70
60725;BME280;59881;36.722;-4.462;2024-01-27T09:15:12;102113.25;;;34.20;22.29
60725;BME280;59881;36.722;-4.462;2024-01-27T09:17:37;101998.44;;;33.95;21.48
60725;BME280;59881;36.722;-4.462;2024-01-27T09:20:03;102202.44;;;35.69;20.70
60725;BME280;59881;36.722;-4.462;2024-01-27T09:22:29;102187.19;;;36.15;20.82
60725;BME280;59881;36.722;-4.462;2024-01-27T09:24:55;101912.72;;;34.98;19.99
60725;BME280;59881;36.722;-4.462;2024-01-27T09:27:20;102099.16;;;36.28;19.71
60725;BME280;59881;36.722;-4.462;2024-01-27T09:29:47;102195.97;;;37.40;18.79
60725;BME280;59881;36.722;-4.462;2024-01-27T09:32:13;102017.25;;;36.49;18.61
60725;BME280;59881;36.722;-4.462;2024-01-27T09:34:38;101956.09;;;35.84;19.06
60725;BME280;59881;36.722;-4.462;2024-01-27T09:37:04;102174.66;;;37.47;18.78
60725;BME280;59881;36.722;-4.462;2024-01-27T09:39:30;102202.28;;;37.40;18.98
60725;BME280;59881;36.722;-4.462;2024-01-27T09:41:56;102024.28;;;36.16;19.31
60725;BME280;59881;36.722;-4.462;2024-01-27T09:44:23;101997.50;;;36.35;18.91
60725;BME280;59881;36.722;-4.462;2024-01-27T09:46:50;101963.47;;;36.47;18.73
60725;BME280;59881;36.722;-4.462;2024-01-27T09:49:16;102168.31;;;38.65;17.68
60725;BME280;59881;36.722;-4.462;2024-01-27T09:51:42;102182.91;;;39.91;16.92
60725;BME280;59881;36.722;-4.462;2024-01-27T09:54:07;102179.69;;;40.37;16.85
60725;BME280;59881;36.722;-4.462;2024-01-27T09:56:34;102097.28;;;40.71;16.26
60725;BME280;59881;36.722;-4.462;2024-01-27T09:59:00;102117.84;;;41.31;15.27
60725;BME280;59881;36.722;-4.462;2024-01-27T10:01:26;102179.00;;;42.07;15.28
60725;BME280;59881;36.722;-4.462;2024-01-27T10:03:54;102186.97;;;42.34;15.05
60725;BME280;59881;36.722;-4.462;2024-01-27T10:06:23;102219.72;;;43.07;14.46
60725;BME280;59881;36.722;-4.462;2024-01-27T10:08:54;101951.59;;;42.34;14.12
60725;BME280;59881;36.722;-4.462;2024-01-27T10:11:20;102187.75;;;44.23;14.28
60725;BME280;59881;36.722;-4.462;2024-01-27T10:13:54;102146.50;;;44.35;13.97
60725;BME280;59881;36.722;-4.462;2024-01-27T10:16:21;102191.19;;;44.87;12.92
60725;BME280;59881;36.722;-4.462;2024-01-27T10:18:46;102190.81;;;45.13;13.08
60725;BME280;59881;36.722;-4.462;2024-01-27T10:21:13;101959.06;;;44.33;12.54
60725;BME280;59881;36.722;-4.462;2024-01-27T10:23:39;102131.75;;;45.87;12.28
60725;BME280;59881;36.722;-4.462;2024-01-27T10:26:09;101984.91;;;45.04;11.97
60725;BME280;59881;36.722;-4.462;2024-01-27T10:28:34;102204.53;;;46.54;11.72
60725;BME280;59881;36.722;-4.462;2024-01-27T10:31:13;102033.84;;;46.21;11.51
60725;BME280;59881;36.722;-4.462;2024-01-27T10:33:39;101898.22;;;45.71;11.70
60725;BME280;59881;36.722;-4.462;2024-01-27T10:36:05;102031.94;;;46.58;10.90
60725;BME280;59881;36.722;-4.462;2024-01-27T10:41:01;102196.81;;;47.83;10.87
60725;BME280;59881;36.722;-4.462;2024-01-27T10:43:28;101941.81;;;46.40;11.26
60725;BME280;59881;36.722;-4.462;2024-01-27T10:45:55;101711.06;;;45.52;10.89
60725;BME280;59881;36.722;-4.462;2024-01-27T10:48:23;102124.50;;;48.13;10.68
60725;BME280;59881;36.722;-4.462;2024-01-27T10:50:51;102215.28;;;48.64;10.55
60725;BME280;59881;36.722;-4.462;2024-01-27T10:53:23;101956.38;;;46.59;10.75
60725;BME280;59881;36.722;-4.462;2024-01-27T10:55:53;102180.25;;;45.99;11.57
60725;BME280;59881;36.722;-4.462;2024-01-27T10:58:25;102006.50;;;43.69;12.60
60725;BME280;59881;36.722;-4.462;2024-01-27T11:00:52;102189.06;;;44.31;13.12
60725;BME280;59881;36.722;-4.462;2024-01-27T11:03:19;101883.25;;;41.80;13.90
60725;BME280;59881;36.722;-4.462;2024-01-27T11:05:46;101886.91;;;41.65;13.87
60725;BME280;59881;36.722;-4.462;2024-01-27T11:08:13;102224.53;;;40.59;15.73
60725;BME280;59881;36.722;-4.462;2024-01-27T11:10:40;102189.91;;;34.07;20.64
60725;BME280;59881;36.722;-4.462;2024-01-27T11:13:07;101920.31;;;27.63;26.24
60725;BME280;59881;36.722;-4.462;2024-01-27T11:15:33;101756.78;;;23.96;30.30
60725;BME280;59881;36.722;-4.462;2024-01-27T11:17:59;102250.56;;;25.08;32.48
60725;BME280;59881;36.722;-4.462;2024-01-27T11:20:32;102089.13;;;23.38;34.51
60725;BME280;59881;36.722;-4.462;2024-01-27T11:23:13;101941.25;;;21.82;36.04
60725;BME280;59881;36.722;-4.462;2024-01-27T11:25:42;102103.44;;;22.17;37.33
60725;BME280;59881;36.722;-4.462;2024-01-27T11:28:16;102204.53;;;22.75;38.02
60725;BME280;59881;36.722;-4.462;2024-01-27T11:30:46;102196.81;;;22.42;38.54
60725;BME280;59881;36.722;-4.462;2024-01-27T11:33:12;101811.59;;;19.67;38.61
60725;BME280;59881;36.722;-4.462;2024-01-27T11:35:38;102190.16;;;21.88;38.97
60725;BME280;59881;36.722;-4.462;2024-01-27T11:38:03;102061.56;;;20.57;40.02
60725;BME280;59881;36.722;-4.462;2024-01-27T11:40:29;101840.19;;;19.03;40.72
60725;BME280;59881;36.722;-4.462;2024-01-27T11:43:01;102167.00;;;20.96;41.14
60725;BME280;59881;36.722;-4.462;2024-01-27T11:45:28;102180.00;;;21.01;41.78
60725;BME280;59881;36.722;-4.462;2024-01-27T11:47:57;102092.72;;;19.95;42.29
60725;BME280;59881;36.722;-4.462;2024-01-27T11:50:25;101892.88;;;19.01;42.33
60725;BME280;59881;36.722;-4.462;2024-01-27T11:52:51;101677.44;;;17.52;42.58
60725;BME280;59881;36.722;-4.462;2024-01-27T11:55:16;102165.22;;;20.76;43.20
60725;BME280;59881;36.722;-4.462;2024-01-27T11:57:44;101960.16;;;19.28;43.52
60725;BME280;59881;36.722;-4.462;2024-01-27T12:00:10;101870.91;;;18.66;44.25
60725;BME280;59881;36.722;-4.462;2024-01-27T12:02:37;102154.41;;;20.35;44.61
60725;BME280;59881;36.722;-4.462;2024-01-27T12:05:04;101863.66;;;18.56;45.27
60725;BME280;59881;36.722;-4.462;2024-01-27T12:07:30;101745.03;;;17.85;45.39
60725;BME280;59881;36.722;-4.462;2024-01-27T12:09:56;101872.09;;;17.95;46.57
60725;BME280;59881;36.722;-4.462;2024-01-27T12:12:22;101916.31;;;18.43;45.90
60725;BME280;59881;36.722;-4.462;2024-01-27T12:14:48;102127.94;;;20.00;45.79
60725;BME280;59881;36.722;-4.462;2024-01-27T12:17:14;101867.88;;;18.15;46.45
60725;BME280;59881;36.722;-4.462;2024-01-27T12:19:48;101543.94;;;16.10;46.83
60725;BME280;59881;36.722;-4.462;2024-01-27T12:22:27;102117.84;;;19.60;47.28
60725;BME280;59881;36.722;-4.462;2024-01-27T12:24:54;102026.91;;;18.61;47.43
60725;BME280;59881;36.722;-4.462;2024-01-27T12:27:21;102128.56;;;19.60;47.61
60725;BME280;59881;36.722;-4.462;2024-01-27T12:29:49;102106.44;;;19.58;48.09
60725;BME280;59881;36.722;-4.462;2024-01-27T12:32:18;102144.69;;;19.58;47.64
60725;BME280;59881;36.722;-4.462;2024-01-27T12:34:44;101666.91;;;16.36;48.00
60725;BME280;59881;36.722;-4.462;2024-01-27T12:37:11;102098.06;;;19.51;48.09
60725;BME280;59881;36.722;-4.462;2024-01-27T12:39:37;101831.88;;;17.98;48.04
60725;BME280;59881;36.722;-4.462;2024-01-27T12:42:04;101639.31;;;16.26;48.16